createdAt,value
2022-07-28T00:02:31.584Z,13.92
2022-07-28T00:05:01.003Z,13.87
2022-07-28T00:07:30.070Z,13.84
2022-07-28T00:10:00.789Z,13.83
2022-07-28T00:12:32.509Z,13.83
2022-07-28T00:15:02.446Z,13.82
2022-07-28T00:17:33.934Z,13.81
2022-07-28T00:20:06.918Z,13.81
2022-07-28T00:22:41.885Z,13.81
2022-07-28T00:25:13.592Z,13.78
2022-07-28T00:27:47.277Z,13.75
2022-07-28T00:30:19.826Z,13.71
2022-07-28T00:32:50.450Z,13.70
2022-07-28T00:35:29.074Z,13.68
2022-07-28T00:38:01.309Z,13.66
2022-07-28T00:40:49.116Z,13.65
2022-07-28T00:43:18.692Z,13.63
2022-07-28T00:45:47.680Z,13.60
2022-07-28T00:48:17.018Z,13.57
2022-07-28T00:50:46.174Z,13.54
2022-07-28T00:53:15.368Z,13.51
2022-07-28T00:56:03.054Z,13.48
2022-07-28T00:58:35.495Z,13.42
2022-07-28T01:01:07.702Z,13.36
2022-07-28T01:03:43.457Z,13.32
2022-07-28T01:06:40.332Z,13.29
2022-07-28T01:09:38.850Z,13.24
2022-07-28T01:12:26.139Z,13.20
2022-07-28T01:15:29.126Z,13.17
2022-07-28T01:18:17.202Z,13.11
2022-07-28T01:20:54.678Z,13.07
2022-07-28T01:23:32.678Z,13.04
2022-07-28T01:26:26.408Z,13.03
2022-07-28T01:29:39.074Z,13.02
2022-07-28T01:32:21.175Z,12.97
2022-07-28T01:35:00.384Z,12.94
2022-07-28T01:37:38.796Z,12.91
2022-07-28T01:40:11.177Z,12.90
2022-07-28T01:42:46.913Z,12.88
2022-07-28T01:45:18.709Z,12.86
2022-07-28T01:47:50.235Z,12.84
2022-07-28T01:50:25.386Z,12.83
2022-07-28T01:52:57.138Z,12.82
2022-07-28T01:55:29.472Z,12.82
2022-07-28T01:58:01.715Z,12.80
2022-07-28T02:00:33.246Z,12.79
2022-07-28T02:03:06.206Z,12.78
2022-07-28T02:05:37.845Z,12.78
2022-07-28T02:08:09.102Z,12.79
2022-07-28T02:10:42.339Z,12.78
2022-07-28T02:13:12.328Z,12.76
2022-07-28T02:15:42.221Z,12.72
2022-07-28T02:18:12.746Z,12.71
2022-07-28T02:20:42.974Z,12.70
2022-07-28T02:23:14.887Z,12.68
2022-07-28T02:25:44.576Z,12.66
2022-07-28T02:28:15.111Z,12.64
2022-07-28T02:31:00.426Z,12.63
2022-07-28T02:33:58.679Z,12.58
2022-07-28T02:36:27.780Z,12.53
2022-07-28T02:39:07.449Z,12.51
2022-07-28T02:41:43.219Z,12.52
2022-07-28T02:44:17.883Z,12.50
2022-07-28T02:46:53.095Z,12.49
2022-07-28T02:49:31.382Z,12.46
2022-07-28T02:52:03.495Z,12.42
2022-07-28T02:54:34.696Z,12.38
2022-07-28T02:57:05.780Z,12.33
2022-07-28T02:59:36.469Z,12.25
2022-07-28T03:02:07.302Z,12.16
2022-07-28T03:04:55.828Z,12.05
2022-07-28T03:07:30.188Z,11.92
2022-07-28T03:10:00.643Z,11.87
2022-07-28T03:12:30.109Z,11.81
2022-07-28T03:14:59.113Z,11.76
2022-07-28T03:17:28.027Z,11.73
2022-07-28T03:19:57.200Z,11.70
2022-07-28T03:22:28.619Z,11.65
2022-07-28T03:25:00.590Z,11.63
2022-07-28T03:27:34.861Z,11.61
2022-07-28T03:30:29.571Z,11.61
2022-07-28T03:33:02.497Z,11.57
2022-07-28T03:35:35.869Z,11.52
2022-07-28T03:38:19.102Z,11.49
2022-07-28T03:40:52.710Z,11.45
2022-07-28T03:43:25.830Z,11.42
2022-07-28T03:45:55.466Z,11.41
2022-07-28T03:48:31.931Z,11.46
2022-07-28T03:51:01.267Z,11.51
2022-07-28T03:53:37.658Z,11.60
2022-07-28T03:56:07.281Z,11.70
2022-07-28T03:58:36.569Z,11.81
2022-07-28T04:01:05.972Z,11.91
2022-07-28T04:03:43.050Z,11.98
2022-07-28T04:06:15.621Z,12.06
2022-07-28T04:08:45.243Z,12.13
2022-07-28T04:11:14.429Z,12.20
2022-07-28T04:13:43.678Z,12.30
2022-07-28T04:16:13.040Z,12.37
2022-07-28T04:18:42.390Z,12.44
2022-07-28T04:21:11.835Z,12.53
2022-07-28T04:23:42.851Z,12.62
2022-07-28T04:26:20.865Z,12.71
2022-07-28T04:28:50.110Z,12.77
2022-07-28T04:31:24.380Z,12.78
2022-07-28T04:33:53.814Z,12.82
2022-07-28T04:36:26.466Z,12.89
2022-07-28T04:39:11.752Z,12.99
2022-07-28T04:41:46.709Z,13.12
2022-07-28T04:44:17.800Z,13.27
2022-07-28T04:46:47.431Z,13.41
2022-07-28T04:49:16.819Z,13.55
2022-07-28T04:51:53.656Z,13.70
2022-07-28T04:54:30.235Z,13.85
2022-07-28T04:57:08.227Z,14.01
2022-07-28T04:59:47.073Z,14.18
2022-07-28T05:02:17.467Z,14.34
2022-07-28T05:04:46.475Z,14.44
2022-07-28T05:07:15.542Z,14.54
2022-07-28T05:09:44.806Z,14.63
2022-07-28T05:12:13.721Z,14.75
2022-07-28T05:14:44.705Z,14.85
2022-07-28T05:17:13.676Z,14.94
2022-07-28T05:19:46.681Z,15.08
2022-07-28T05:22:15.803Z,15.26
2022-07-28T05:24:48.331Z,15.46
2022-07-28T05:27:17.325Z,15.70
2022-07-28T05:29:48.091Z,15.93
2022-07-28T05:32:18.164Z,16.23
2022-07-28T05:34:47.364Z,16.49
2022-07-28T05:37:17.214Z,16.75
2022-07-28T05:39:46.011Z,17.00
2022-07-28T05:45:52.167Z,17.58
2022-07-28T05:48:22.729Z,17.98
2022-07-28T05:50:51.857Z,18.33
2022-07-28T05:53:21.468Z,18.66
2022-07-28T05:56:00.236Z,19.06
2022-07-28T05:58:31.368Z,19.56
2022-07-28T06:01:02.847Z,20.06
2022-07-28T06:03:41.550Z,20.44
2022-07-28T06:06:16.200Z,20.89
2022-07-28T06:08:47.787Z,21.27
2022-07-28T06:11:21.624Z,21.63
2022-07-28T06:13:53.499Z,22.11
2022-07-28T06:16:23.554Z,22.55
2022-07-28T06:18:55.497Z,22.82
2022-07-28T06:21:28.347Z,23.08
2022-07-28T06:24:02.348Z,23.46
2022-07-28T06:26:31.430Z,23.99
2022-07-28T06:29:00.650Z,24.53
2022-07-28T06:31:29.585Z,24.94
2022-07-28T06:33:58.517Z,25.12
2022-07-28T06:36:27.416Z,25.33
2022-07-28T06:38:56.340Z,25.70
2022-07-28T06:41:25.214Z,25.87
2022-07-28T06:43:54.223Z,25.95
2022-07-28T06:46:23.166Z,26.18
2022-07-28T06:48:52.195Z,26.35
2022-07-28T06:51:23.347Z,26.51
2022-07-28T06:53:52.461Z,26.64
2022-07-28T06:56:22.850Z,26.82
2022-07-28T06:58:52.483Z,26.83
2022-07-28T07:01:21.504Z,26.86
2022-07-28T07:03:50.440Z,27.02
2022-07-28T07:06:19.467Z,27.21
2022-07-28T07:08:48.758Z,27.41
2022-07-28T07:11:17.696Z,27.66
2022-07-28T07:13:46.638Z,27.83
2022-07-28T07:16:15.684Z,27.86
2022-07-28T07:18:45.096Z,27.87
2022-07-28T07:21:14.611Z,27.95
2022-07-28T07:23:43.669Z,27.92
2022-07-28T07:26:16.262Z,27.97
2022-07-28T07:28:45.248Z,28.09
2022-07-28T07:31:14.649Z,28.11
2022-07-28T07:33:43.832Z,28.04
2022-07-28T07:36:14.896Z,28.01
2022-07-28T07:38:46.495Z,28.03
2022-07-28T07:41:19.041Z,28.03
2022-07-28T07:43:49.239Z,28.08
2022-07-28T07:46:18.524Z,28.05
2022-07-28T07:48:47.577Z,28.09
2022-07-28T07:51:16.655Z,28.20
2022-07-28T07:53:46.000Z,28.28
2022-07-28T07:56:22.826Z,28.38
2022-07-28T07:58:57.022Z,28.46
2022-07-28T08:01:26.201Z,28.57
2022-07-28T08:03:55.351Z,28.73
2022-07-28T08:06:26.612Z,28.87
2022-07-28T08:08:58.466Z,28.94
2022-07-28T08:11:30.751Z,28.85
2022-07-28T08:14:00.120Z,28.86
2022-07-28T08:16:30.563Z,28.88
2022-07-28T08:19:02.010Z,28.96
2022-07-28T08:21:33.380Z,29.11
2022-07-28T08:24:04.005Z,29.19
2022-07-28T08:26:35.342Z,29.14
2022-07-28T08:29:04.444Z,28.84
2022-07-28T08:31:35.424Z,28.46
2022-07-28T08:34:05.174Z,28.16
2022-07-28T08:36:57.776Z,28.10
2022-07-28T08:39:27.868Z,28.17
2022-07-28T08:42:07.121Z,28.14
2022-07-28T08:44:55.529Z,28.29
2022-07-28T08:47:35.619Z,28.35
2022-07-28T08:50:13.912Z,28.15
2022-07-28T08:52:46.753Z,28.30
2022-07-28T08:55:19.754Z,28.66
2022-07-28T08:57:50.295Z,28.87
2022-07-28T09:00:23.550Z,28.95
2022-07-28T09:02:53.125Z,28.95
2022-07-28T09:05:27.303Z,29.04
2022-07-28T09:07:57.084Z,29.27
2022-07-28T09:10:26.557Z,29.47
2022-07-28T09:12:58.215Z,29.70
2022-07-28T09:15:27.820Z,29.81
2022-07-28T09:17:57.091Z,29.80
2022-07-28T09:20:29.686Z,29.88
2022-07-28T09:23:41.721Z,29.99
2022-07-28T09:26:12.356Z,30.22
2022-07-28T09:28:55.212Z,30.30
2022-07-28T09:31:28.265Z,30.21
2022-07-28T09:34:05.827Z,30.25
2022-07-28T09:36:40.545Z,30.37
2022-07-28T09:39:10.140Z,30.41
2022-07-28T09:41:56.065Z,30.40
2022-07-28T09:44:27.581Z,30.39
2022-07-28T09:46:57.351Z,30.24
2022-07-28T09:49:44.403Z,29.90
2022-07-28T09:52:14.114Z,29.82
2022-07-28T09:55:09.210Z,29.98
2022-07-28T09:57:40.390Z,30.08
2022-07-28T10:00:25.693Z,30.23
2022-07-28T10:02:57.081Z,30.37
2022-07-28T10:05:40.730Z,30.40
2022-07-28T10:08:09.755Z,30.43
2022-07-28T10:10:39.762Z,30.45
2022-07-28T10:13:08.979Z,30.24
2022-07-28T10:15:56.596Z,30.01
2022-07-28T10:18:25.822Z,29.81
2022-07-28T10:20:55.919Z,29.67
2022-07-28T10:23:27.769Z,29.64
2022-07-28T10:26:01.082Z,29.48
2022-07-28T10:28:37.177Z,29.30
2022-07-28T10:31:15.372Z,29.40
2022-07-28T10:33:51.153Z,29.39
2022-07-28T10:36:25.945Z,29.38
2022-07-28T10:39:05.501Z,29.34
2022-07-28T10:41:43.387Z,29.21
2022-07-28T10:44:19.351Z,29.06
2022-07-28T10:46:50.307Z,28.90
2022-07-28T10:49:20.944Z,28.74
2022-07-28T10:52:06.263Z,28.69
2022-07-28T10:55:03.649Z,28.46
2022-07-28T10:57:34.740Z,28.31
2022-07-28T11:00:25.883Z,28.27
2022-07-28T11:03:13.974Z,28.22
2022-07-28T11:05:44.461Z,28.15
2022-07-28T11:08:17.194Z,28.00
2022-07-28T11:11:00.868Z,27.87
2022-07-28T11:13:41.201Z,27.72
2022-07-28T11:16:13.324Z,27.51
2022-07-28T11:19:07.928Z,27.30
2022-07-28T11:22:18.425Z,26.99
2022-07-28T11:25:20.764Z,26.70
2022-07-28T11:28:01.339Z,26.52
2022-07-28T11:30:33.819Z,26.41
2022-07-28T11:33:09.571Z,26.34
2022-07-28T11:36:04.852Z,26.27
2022-07-28T11:38:35.471Z,26.17
2022-07-28T11:41:30.612Z,26.08
2022-07-28T11:44:19.868Z,25.97
2022-07-28T11:47:20.505Z,25.92
2022-07-28T11:50:17.400Z,25.89
2022-07-28T11:52:57.334Z,25.94
2022-07-28T11:55:55.930Z,25.96
2022-07-28T11:58:27.757Z,25.95
2022-07-28T12:01:20.350Z,25.97
2022-07-28T12:03:55.487Z,26.06
2022-07-28T12:06:40.890Z,26.14
2022-07-28T12:09:13.597Z,26.18
2022-07-28T12:11:42.820Z,26.22
2022-07-28T12:14:17.717Z,26.25
2022-07-28T12:16:51.689Z,26.29
2022-07-28T12:19:21.510Z,26.29
2022-07-28T12:21:53.110Z,26.26
2022-07-28T12:24:29.445Z,26.29
2022-07-28T12:27:04.098Z,26.30
2022-07-28T12:30:00.364Z,26.30
2022-07-28T12:32:36.609Z,26.13
2022-07-28T12:35:06.511Z,25.94
2022-07-28T12:37:37.853Z,25.91
2022-07-28T12:40:10.850Z,25.90
2022-07-28T12:42:42.552Z,25.85
2022-07-28T12:45:13.020Z,25.76
2022-07-28T12:47:41.964Z,25.74
2022-07-28T12:50:20.009Z,25.79
2022-07-28T12:53:08.408Z,25.85
2022-07-28T12:55:39.733Z,25.79
2022-07-28T12:58:23.756Z,25.66
2022-07-28T13:00:53.967Z,25.52
2022-07-28T13:03:28.557Z,25.42
2022-07-28T13:06:04.000Z,25.42
2022-07-28T13:08:47.850Z,25.43
2022-07-28T13:11:42.459Z,25.41
2022-07-28T13:14:09.162Z,25.26
2022-07-28T13:16:38.246Z,25.11
2022-07-28T13:19:07.648Z,25.01
2022-07-28T13:21:56.605Z,24.99
2022-07-28T13:24:29.286Z,24.96
2022-07-28T13:27:01.586Z,24.94
2022-07-28T13:29:35.665Z,24.94
2022-07-28T13:32:05.023Z,24.94
2022-07-28T13:34:34.260Z,24.97
2022-07-28T13:37:03.203Z,24.98
2022-07-28T13:39:32.063Z,24.97
2022-07-28T13:42:05.414Z,24.99
2022-07-28T13:44:38.058Z,25.00
2022-07-28T13:47:07.392Z,24.97
2022-07-28T13:49:40.091Z,24.93
2022-07-28T13:52:12.938Z,24.89
2022-07-28T13:54:42.299Z,24.90
2022-07-28T13:57:14.648Z,24.93
2022-07-28T13:59:44.247Z,24.95
2022-07-28T14:02:15.090Z,24.98
2022-07-28T14:04:50.187Z,25.00
2022-07-28T14:07:22.778Z,25.01
2022-07-28T14:09:53.559Z,24.99
2022-07-28T14:12:23.172Z,24.98
2022-07-28T14:14:53.972Z,25.00
2022-07-28T14:20:15.862Z,25.00
2022-07-28T14:22:46.577Z,24.90
2022-07-28T14:25:19.394Z,24.85
2022-07-28T14:27:52.781Z,24.85
2022-07-28T14:30:28.476Z,24.87
2022-07-28T14:33:11.591Z,24.84
2022-07-28T14:35:40.810Z,24.80
2022-07-28T14:40:59.646Z,24.70
2022-07-28T14:43:28.708Z,24.63
2022-07-28T14:46:14.854Z,24.59
2022-07-28T14:48:50.958Z,24.55
2022-07-28T14:51:19.940Z,24.58
2022-07-28T14:53:52.157Z,24.62
2022-07-28T14:56:21.251Z,24.67
2022-07-28T14:58:51.349Z,24.72
2022-07-28T15:01:20.463Z,24.77
2022-07-28T15:03:49.477Z,24.81
2022-07-28T15:06:22.192Z,24.84
2022-07-28T15:08:53.524Z,24.85
2022-07-28T15:11:22.385Z,24.82
2022-07-28T15:13:51.621Z,24.76
2022-07-28T15:16:20.566Z,24.73
2022-07-28T15:18:53.420Z,24.70
2022-07-28T15:21:22.260Z,24.68
2022-07-28T15:23:51.132Z,24.69
2022-07-28T15:26:20.141Z,24.70
2022-07-28T15:28:49.056Z,24.70
2022-07-28T15:31:20.643Z,24.68
2022-07-28T15:33:55.609Z,24.68
2022-07-28T15:36:27.255Z,24.69
2022-07-28T15:38:56.379Z,24.71
2022-07-28T15:41:25.345Z,24.72
2022-07-28T15:43:54.249Z,24.71
2022-07-28T15:46:23.294Z,24.70
2022-07-28T15:48:54.688Z,24.69
2022-07-28T15:51:26.071Z,24.68
2022-07-28T15:53:56.506Z,24.69
2022-07-28T15:56:26.713Z,24.66
2022-07-28T15:58:57.317Z,24.62
2022-07-28T16:01:26.845Z,24.59
2022-07-28T16:03:58.138Z,24.53
2022-07-28T16:06:47.732Z,24.47
2022-07-28T16:09:16.754Z,24.38
2022-07-28T16:11:46.112Z,24.36
2022-07-28T16:14:15.294Z,24.38
2022-07-28T16:16:45.417Z,24.41
2022-07-28T16:19:31.554Z,24.43
2022-07-28T16:22:03.524Z,24.44
2022-07-28T16:24:32.941Z,24.45
2022-07-28T16:27:02.342Z,24.47
2022-07-28T16:29:31.336Z,24.49
2022-07-28T16:32:00.291Z,24.50
2022-07-28T16:34:29.680Z,24.48
2022-07-28T16:36:58.597Z,24.48
2022-07-28T16:39:27.684Z,24.49
2022-07-28T16:41:56.503Z,24.49
2022-07-28T16:44:26.621Z,24.49
2022-07-28T16:46:55.692Z,24.50
2022-07-28T16:49:25.101Z,24.50
2022-07-28T16:51:55.641Z,24.51
2022-07-28T16:54:24.760Z,24.52
2022-07-28T16:56:55.663Z,24.52
2022-07-28T16:59:25.100Z,24.54
2022-07-28T17:02:07.860Z,24.54
2022-07-28T17:04:36.882Z,24.53
2022-07-28T17:07:07.051Z,24.52
2022-07-28T17:09:36.206Z,24.52
2022-07-28T17:12:07.130Z,24.51
2022-07-28T17:14:36.251Z,24.52
2022-07-28T17:17:05.538Z,24.52
2022-07-28T17:19:34.365Z,24.50
2022-07-28T17:22:07.138Z,24.47
2022-07-28T17:24:36.043Z,24.45
2022-07-28T17:29:54.287Z,24.42
2022-07-28T17:32:23.216Z,24.38
2022-07-28T17:34:52.695Z,24.34
2022-07-28T17:37:22.023Z,24.30
2022-07-28T17:39:50.921Z,24.25
2022-07-28T17:42:19.842Z,24.21
2022-07-28T17:44:50.763Z,24.16
2022-07-28T17:47:21.155Z,24.13
2022-07-28T17:49:54.170Z,24.11
2022-07-28T17:52:23.342Z,24.11
2022-07-28T17:55:11.070Z,24.08
2022-07-28T17:57:41.136Z,24.03
2022-07-28T18:00:11.074Z,23.99
2022-07-28T18:02:43.577Z,23.97
2022-07-28T18:05:17.665Z,23.94
2022-07-28T18:07:50.261Z,23.88
2022-07-28T18:10:24.610Z,23.76
2022-07-28T18:12:54.216Z,23.71
2022-07-28T18:15:27.864Z,23.71
2022-07-28T18:18:00.138Z,23.71
2022-07-28T18:20:30.095Z,23.71
2022-07-28T18:22:58.999Z,23.68
2022-07-28T18:25:31.352Z,23.65
2022-07-28T18:28:01.069Z,23.61
2022-07-28T18:30:30.218Z,23.58
2022-07-28T18:33:00.003Z,23.55
2022-07-28T18:35:32.096Z,23.51
2022-07-28T18:38:03.343Z,23.46
2022-07-28T18:40:32.162Z,23.39
2022-07-28T18:43:04.067Z,23.25
2022-07-28T18:45:33.186Z,23.18
2022-07-28T18:48:04.452Z,23.14
2022-07-28T18:50:36.033Z,23.09
2022-07-28T18:53:09.843Z,23.03
2022-07-28T18:55:38.791Z,22.96
2022-07-28T18:58:11.053Z,22.89
2022-07-28T19:00:40.116Z,22.83
2022-07-28T19:03:12.666Z,22.78
2022-07-28T19:05:45.814Z,22.71
2022-07-28T19:08:18.139Z,22.63
2022-07-28T19:10:47.704Z,22.55
2022-07-28T19:13:22.206Z,22.45
2022-07-28T19:15:51.123Z,22.35
2022-07-28T19:18:23.289Z,22.18
2022-07-28T19:20:52.232Z,21.99
2022-07-28T19:23:21.222Z,21.90
2022-07-28T19:25:50.616Z,21.84
2022-07-28T19:28:19.777Z,21.77
2022-07-28T19:30:50.623Z,21.68
2022-07-28T19:33:21.506Z,21.57
2022-07-28T19:35:52.700Z,21.47
2022-07-28T19:38:25.322Z,21.38
2022-07-28T19:40:58.604Z,21.29
2022-07-28T19:43:27.574Z,21.20
2022-07-28T19:46:00.139Z,21.14
2022-07-28T19:48:29.423Z,21.08
2022-07-28T19:51:01.631Z,21.02
2022-07-28T19:53:35.846Z,20.95
2022-07-28T19:56:08.883Z,20.90
2022-07-28T19:58:39.768Z,20.85
2022-07-28T20:01:09.062Z,20.79
2022-07-28T20:04:03.615Z,20.73
2022-07-28T20:06:27.883Z,20.65
2022-07-28T20:08:57.356Z,20.61
2022-07-28T20:11:43.715Z,20.57
2022-07-28T20:14:20.256Z,20.51
2022-07-28T20:16:56.692Z,20.45
2022-07-28T20:19:27.855Z,20.41
2022-07-28T20:22:22.684Z,20.34
2022-07-28T20:24:53.145Z,20.22
2022-07-28T20:27:23.452Z,20.18
2022-07-28T20:29:52.337Z,20.17
2022-07-28T20:32:21.408Z,20.16
2022-07-28T20:34:52.168Z,20.12
2022-07-28T20:37:35.699Z,20.08
2022-07-28T20:40:10.049Z,20.02
2022-07-28T20:42:42.687Z,19.98
2022-07-28T20:45:11.739Z,19.95
2022-07-28T20:47:41.202Z,19.93
2022-07-28T20:50:10.459Z,19.91
2022-07-28T20:52:39.512Z,19.88
2022-07-28T20:55:12.659Z,19.85
2022-07-28T20:57:42.312Z,19.81
2022-07-28T21:00:24.528Z,19.75
2022-07-28T21:02:53.680Z,19.71
2022-07-28T21:05:26.623Z,19.69
2022-07-28T21:08:09.130Z,19.67
2022-07-28T21:10:46.035Z,19.61
2022-07-28T21:13:15.204Z,19.57
2022-07-28T21:15:44.014Z,19.52
2022-07-28T21:18:13.089Z,19.46
2022-07-28T21:20:42.486Z,19.42
2022-07-28T21:23:12.636Z,19.37
2022-07-28T21:25:41.515Z,19.31
2022-07-28T21:28:34.453Z,19.25
2022-07-28T21:31:03.404Z,19.19
2022-07-28T21:33:36.184Z,19.14
2022-07-28T21:36:05.707Z,19.11
2022-07-28T21:38:34.657Z,19.06
2022-07-28T21:41:04.386Z,19.03
2022-07-28T21:43:33.388Z,19.00
2022-07-28T21:46:08.426Z,18.97
2022-07-28T21:48:37.682Z,18.94
2022-07-28T21:51:18.154Z,18.92
2022-07-28T21:53:56.948Z,18.86
2022-07-28T21:56:34.652Z,18.81
2022-07-28T21:59:04.571Z,18.78
2022-07-28T22:01:33.817Z,18.74
2022-07-28T22:04:03.789Z,18.71
2022-07-28T22:06:36.894Z,18.67
2022-07-28T22:09:15.465Z,18.61
2022-07-28T22:11:45.445Z,18.56
2022-07-28T22:14:21.314Z,18.52
2022-07-28T22:16:52.676Z,18.47
2022-07-28T22:19:21.708Z,18.40
2022-07-28T22:21:51.704Z,18.34
2022-07-28T22:24:23.757Z,18.29
2022-07-28T22:26:52.733Z,18.24
2022-07-28T22:29:21.781Z,18.20
2022-07-28T22:31:54.734Z,18.15
2022-07-28T22:34:26.837Z,18.09
2022-07-28T22:36:56.502Z,18.04
2022-07-28T22:39:25.564Z,18.00
2022-07-28T22:41:54.632Z,17.95
2022-07-28T22:44:24.629Z,17.91
2022-07-28T22:46:57.489Z,17.87
2022-07-28T22:49:26.955Z,17.85
2022-07-28T22:51:55.908Z,17.80
2022-07-28T22:54:24.708Z,17.76
2022-07-28T22:56:53.436Z,17.73
2022-07-28T22:59:23.367Z,17.70
2022-07-28T23:01:55.208Z,17.67
2022-07-28T23:04:25.652Z,17.63
2022-07-28T23:07:13.515Z,17.60
2022-07-28T23:09:50.063Z,17.54
2022-07-28T23:12:23.024Z,17.48
2022-07-28T23:14:51.885Z,17.46
2022-07-28T23:17:22.206Z,17.44
2022-07-28T23:19:53.280Z,17.41
2022-07-28T23:22:25.033Z,17.37
2022-07-28T23:24:54.908Z,17.34
2022-07-28T23:27:24.185Z,17.29
2022-07-28T23:29:55.213Z,17.25
2022-07-28T23:32:24.166Z,17.21
2022-07-28T23:34:59.464Z,17.17
2022-07-28T23:37:28.983Z,17.13
2022-07-28T23:39:59.172Z,17.12
2022-07-28T23:42:28.048Z,17.09
2022-07-28T23:44:58.273Z,17.05
2022-07-28T23:47:27.283Z,17.01
2022-07-28T23:49:56.176Z,16.97
2022-07-28T23:52:25.047Z,16.93
2022-07-28T23:54:56.859Z,16.89
2022-07-28T23:57:31.369Z,16.87
